Time;durP1;ratioP1;P1;durP2;ratioP2;P2;SDS_P1;SDS_P2;PMS_P1;PMS_P2;Temp;Humidity;BMP_temperature;BMP_pressure;BME280_temperature;BME280_humidity;BME280_pressure;Samples;Min_cycle;Max_cycle;Signal;HPM_P1;HPM_P2
2023/07/12 00:01:27;;;;;;;13.55;3.45;;;12.80;99.90;;;;;;5032071;28;20489;-58
2023/07/12 00:03:55;;;;;;;7.55;3.80;;;12.90;99.90;;;;;;5037036;28;20068;-58
2023/07/12 00:06:36;;;;;;;5.03;2.67;;;12.80;99.90;;;;;;5049396;28;20045;-58
2023/07/12 00:09:09;;;;;;;8.25;2.95;;;12.80;99.90;;;;;;5044072;28;20402;-59
2023/07/12 00:11:37;;;;;;;14.60;3.78;;;12.80;99.90;;;;;;5031757;28;20056;-59
2023/07/12 00:14:05;;;;;;;11.55;2.85;;;12.80;99.90;;;;;;5037011;28;20049;-58
2023/07/12 00:16:36;;;;;;;5.82;3.10;;;12.90;99.90;;;;;;5061719;28;20048;-58
2023/07/12 00:19:05;;;;;;;5.10;2.97;;;12.90;99.90;;;;;;5048560;28;20068;-58
2023/07/12 00:21:33;;;;;;;8.80;2.80;;;12.90;99.90;;;;;;5033653;28;20048;-58
2023/07/12 00:24:01;;;;;;;6.53;3.03;;;12.90;99.90;;;;;;5036976;28;20068;-58
2023/07/12 00:26:30;;;;;;;6.32;2.60;;;13.00;99.90;;;;;;5030698;28;20049;-60
2023/07/12 00:29:00;;;;;;;4.68;2.42;;;13.00;99.90;;;;;;5034307;28;20037;-59
2023/07/12 00:31:32;;;;;;;10.30;3.22;;;13.00;99.90;;;;;;5032047;28;20045;-59
2023/07/12 00:34:04;;;;;;;8.27;2.80;;;13.10;99.90;;;;;;5023944;28;20037;-58
2023/07/12 00:36:34;;;;;;;8.85;3.17;;;13.10;99.90;;;;;;5046065;28;20049;-59
2023/07/12 00:39:05;;;;;;;4.25;3.03;;;13.10;99.90;;;;;;5045505;28;20048;-59
2023/07/12 00:41:48;;;;;;;;;;;13.10;99.90;;;;;;5016321;28;20654;-58
2023/07/12 00:44:22;;;;;;;11.35;2.50;;;13.20;99.90;;;;;;5037259;28;19921;-58
2023/07/12 00:46:54;;;;;;;10.40;2.78;;;13.20;99.90;;;;;;5043455;28;20052;-58
2023/07/12 00:49:25;;;;;;;5.30;2.50;;;13.20;99.90;;;;;;5041515;28;20208;-58
2023/07/12 00:52:14;;;;;;;7.00;2.37;;;13.20;99.90;;;;;;5048582;28;20377;-58
2023/07/12 00:54:52;;;;;;;6.25;2.83;;;13.30;99.90;;;;;;5045662;28;20041;-59
2023/07/12 00:57:26;;;;;;;7.35;2.88;;;13.30;99.90;;;;;;5050796;28;20045;-60
2023/07/12 01:00:00;;;;;;;6.28;2.63;;;13.30;99.90;;;;;;5033666;28;20041;-59
2023/07/12 01:02:29;;;;;;;6.45;2.65;;;13.30;99.90;;;;;;5045226;28;20044;-60
2023/07/12 01:04:59;;;;;;;5.13;2.78;;;13.30;99.90;;;;;;5028178;28;20491;-59
2023/07/12 01:07:28;;;;;;;;;;;13.30;99.90;;;;;;5041764;28;20045;-59
2023/07/12 01:09:56;;;;;;;7.03;3.17;;;13.30;99.90;;;;;;5039918;28;20346;-59
2023/07/12 01:12:24;;;;;;;9.13;2.85;;;13.20;99.90;;;;;;5031195;28;20049;-60
2023/07/12 01:14:53;;;;;;;9.15;2.85;;;13.30;99.90;;;;;;5040092;28;20049;-60
2023/07/12 01:17:23;;;;;;;4.60;2.72;;;13.30;99.90;;;;;;5016141;28;20528;-60
2023/07/12 01:19:51;;;;;;;6.60;2.63;;;13.30;99.90;;;;;;5042994;28;20476;-60
2023/07/12 01:22:18;;;;;;;3.22;2.30;;;13.30;99.90;;;;;;5036221;28;20056;-60
2023/07/12 01:24:46;;;;;;;5.60;3.08;;;13.30;99.90;;;;;;5032822;28;20050;-59
2023/07/12 01:27:18;;;;;;;6.40;2.22;;;13.40;99.90;;;;;;5046893;28;20049;-58
2023/07/12 01:29:48;;;;;;;4.85;2.38;;;13.40;99.90;;;;;;5040682;28;20057;-59
2023/07/12 01:32:17;;;;;;;12.10;2.75;;;13.30;99.90;;;;;;5040441;28;20044;-58
2023/07/12 01:34:46;;;;;;;8.02;2.83;;;13.30;99.90;;;;;;5050027;28;20064;-60
2023/07/12 01:37:14;;;;;;;5.32;2.30;;;13.30;99.90;;;;;;5047025;28;20048;-58
2023/07/12 01:39:42;;;;;;;6.35;2.63;;;13.20;99.90;;;;;;5050149;28;20045;-59
2023/07/12 01:42:11;;;;;;;5.20;2.50;;;13.20;99.90;;;;;;5014710;28;20044;-59
2023/07/12 01:44:38;;;;;;;5.43;2.47;;;13.20;99.90;;;;;;5038604;28;20546;-59
2023/07/12 01:47:06;;;;;;;4.03;2.67;;;13.10;99.90;;;;;;5027528;28;20037;-59
2023/07/12 01:49:34;;;;;;;4.43;2.85;;;13.10;99.90;;;;;;5039839;28;20040;-59
2023/07/12 01:52:02;;;;;;;5.68;2.75;;;13.10;99.90;;;;;;5031794;28;20048;-58
2023/07/12 01:54:31;;;;;;;7.65;2.42;;;13.00;99.90;;;;;;5043516;28;20511;-59
2023/07/12 01:56:58;;;;;;;4.03;2.47;;;13.00;99.90;;;;;;5028745;28;20064;-59
2023/07/12 01:59:27;;;;;;;5.35;2.50;;;13.00;99.90;;;;;;5035693;28;20052;-59
2023/07/12 02:01:54;;;;;;;8.10;2.90;;;13.00;99.90;;;;;;5033794;28;20049;-60
2023/07/12 02:04:22;;;;;;;11.10;3.08;;;13.00;99.90;;;;;;5047477;28;20397;-60
2023/07/12 02:06:50;;;;;;;7.68;2.60;;;13.00;99.90;;;;;;5034880;28;20492;-60
2023/07/12 02:09:18;;;;;;;4.88;2.67;;;13.00;99.90;;;;;;5051668;28;20056;-59
2023/07/12 02:11:46;;;;;;;6.28;2.92;;;13.00;99.90;;;;;;5039745;28;20037;-59
2023/07/12 02:14:13;;;;;;;6.72;2.97;;;13.00;99.90;;;;;;5044283;28;20044;-59
2023/07/12 02:16:41;;;;;;;8.73;2.92;;;12.90;99.90;;;;;;5030434;28;20048;-59
2023/07/12 02:19:11;;;;;;;4.43;2.78;;;12.90;99.90;;;;;;5050882;28;20045;-60
2023/07/12 02:21:42;;;;;;;4.80;2.67;;;12.90;99.90;;;;;;5051463;28;20064;-60
2023/07/12 02:24:10;;;;;;;8.23;3.20;;;12.90;99.90;;;;;;5041427;28;20056;-60
2023/07/12 02:26:39;;;;;;;7.10;3.47;;;12.90;99.90;;;;;;5042195;28;20072;-60
2023/07/12 02:29:07;;;;;;;5.63;3.20;;;12.90;99.90;;;;;;5030041;28;20662;-60
2023/07/12 02:31:35;;;;;;;9.38;3.88;;;12.90;99.90;;;;;;5039978;28;20412;-59
2023/07/12 02:34:03;;;;;;;10.50;3.20;;;12.90;99.90;;;;;;5036890;28;20045;-59
2023/07/12 02:36:31;;;;;;;7.72;3.25;;;12.90;99.90;;;;;;5047049;28;20389;-59
2023/07/12 02:38:58;;;;;;;7.68;2.83;;;12.80;99.90;;;;;;5048825;28;20049;-60
2023/07/12 02:41:26;;;;;;;8.52;3.22;;;12.80;99.90;;;;;;5048821;28;20072;-59
2023/07/12 02:43:53;;;;;;;8.98;3.72;;;12.90;99.90;;;;;;5050383;28;20041;-60
2023/07/12 02:46:21;;;;;;;12.32;3.22;;;12.90;99.90;;;;;;5036731;28;20033;-58
2023/07/12 02:48:49;;;;;;;5.10;3.42;;;12.80;99.90;;;;;;5047570;28;20051;-58
2023/07/12 02:51:17;;;;;;;9.43;3.20;;;12.90;99.90;;;;;;5042638;28;20045;-58
2023/07/12 02:53:44;;;;;;;7.93;3.67;;;12.90;99.90;;;;;;5044322;28;20489;-59
2023/07/12 02:56:12;;;;;;;8.98;4.40;;;12.90;99.90;;;;;;5055052;28;20049;-58
2023/07/12 02:58:40;;;;;;;7.78;3.58;;;12.80;99.90;;;;;;5040179;28;20259;-59
2023/07/12 03:01:07;;;;;;;11.88;4.43;;;12.80;99.90;;;;;;5034794;28;20045;-60
2023/07/12 03:03:35;;;;;;;11.77;4.00;;;12.80;99.90;;;;;;5052390;28;20056;-59
2023/07/12 03:06:09;;;;;;;5.00;3.60;;;12.80;99.90;;;;;;5060996;28;20044;-59
2023/07/12 03:08:37;;;;;;;10.18;3.90;;;12.70;99.90;;;;;;5057536;28;20060;-61
2023/07/12 03:11:07;;;;;;;7.22;3.72;;;12.70;99.90;;;;;;5051543;28;20048;-60
2023/07/12 03:13:35;;;;;;;10.77;4.47;;;12.60;99.90;;;;;;5043956;28;20060;-59
2023/07/12 03:16:07;;;;;;;10.55;4.45;;;12.60;99.90;;;;;;5032995;28;20044;-58
2023/07/12 03:18:41;;;;;;;15.70;4.38;;;12.50;99.90;;;;;;5051897;28;20071;-59
2023/07/12 03:21:10;;;;;;;8.70;4.13;;;12.50;99.90;;;;;;5037194;28;20045;-59
2023/07/12 03:23:37;;;;;;;6.32;4.22;;;12.50;99.90;;;;;;5053812;28;20049;-59
2023/07/12 03:26:05;;;;;;;9.05;4.18;;;12.50;99.90;;;;;;5053618;28;20068;-59
2023/07/12 03:28:33;;;;;;;12.88;5.13;;;12.50;99.90;;;;;;5053130;28;20048;-59
2023/07/12 03:31:03;;;;;;;9.82;4.43;;;12.50;99.90;;;;;;5051684;28;20045;-59
2023/07/12 03:33:31;;;;;;;12.90;4.63;;;12.50;99.90;;;;;;5036782;28;20054;-59
2023/07/12 03:35:59;;;;;;;13.90;4.90;;;12.50;99.90;;;;;;5053713;28;20040;-60
2023/07/12 03:38:30;;;;;;;8.75;4.30;;;12.50;99.90;;;;;;5034453;28;20481;-60
2023/07/12 03:41:03;;;;;;;8.20;4.70;;;12.60;99.90;;;;;;5037483;28;20592;-60
2023/07/12 03:43:32;;;;;;;14.30;5.82;;;12.70;99.90;;;;;;5039667;28;20041;-59
2023/07/12 03:46:00;;;;;;;12.52;5.70;;;12.70;99.90;;;;;;5032757;28;20080;-60
2023/07/12 03:48:28;;;;;;;18.77;8.02;;;12.70;99.90;;;;;;5038453;28;20488;-59
2023/07/12 03:50:56;;;;;;;13.25;8.57;;;12.80;99.90;;;;;;5054163;28;20488;-58
2023/07/12 03:53:25;;;;;;;18.25;9.05;;;12.80;99.90;;;;;;5052031;28;20048;-58
2023/07/12 03:56:02;;;;;;;14.70;8.63;;;12.80;99.90;;;;;;5054047;28;20056;-58
2023/07/12 03:58:34;;;;;;;17.73;8.90;;;12.70;99.90;;;;;;5043656;28;20044;-58
2023/07/12 04:01:05;;;;;;;15.48;8.30;;;12.70;99.90;;;;;;5052440;28;20041;-58
2023/07/12 04:03:33;;;;;;;12.93;7.75;;;12.70;99.90;;;;;;5050085;28;20041;-58
2023/07/12 04:06:03;;;;;;;15.40;7.95;;;12.70;99.90;;;;;;5057095;28;20045;-59
2023/07/12 04:08:32;;;;;;;13.15;7.28;;;12.60;99.90;;;;;;5048172;28;20061;-59
2023/07/12 04:11:00;;;;;;;11.10;6.32;;;12.60;99.90;;;;;;5036828;28;20055;-59
2023/07/12 04:13:28;;;;;;;8.35;5.38;;;12.60;99.90;;;;;;5046834;28;20064;-59
2023/07/12 04:15:58;;;;;;;13.52;5.93;;;12.60;99.90;;;;;;5052254;28;20504;-59
2023/07/12 04:18:27;;;;;;;7.95;5.60;;;12.60;99.90;;;;;;5051214;28;20404;-59
2023/07/12 04:20:58;;;;;;;10.82;5.25;;;12.70;99.90;;;;;;5038610;28;20060;-59
2023/07/12 04:23:26;;;;;;;8.70;4.95;;;12.70;99.90;;;;;;5041431;28;20058;-59
2023/07/12 04:26:02;;;;;;;13.50;4.93;;;12.70;99.90;;;;;;5042453;28;20049;-59
2023/07/12 04:28:37;;;;;;;9.95;4.72;;;12.80;99.90;;;;;;5033496;28;20060;-59
2023/07/12 04:31:08;;;;;;;11.02;4.75;;;12.80;99.90;;;;;;5045599;28;20048;-59
2023/07/12 04:33:37;;;;;;;12.57;4.10;;;12.80;99.90;;;;;;5053567;28;20052;-58
2023/07/12 04:36:06;;;;;;;9.13;3.85;;;12.80;99.90;;;;;;5055259;28;20734;-58
2023/07/12 04:38:34;;;;;;;11.88;4.10;;;12.90;99.90;;;;;;5053016;28;20045;-59
2023/07/12 04:41:02;;;;;;;8.20;4.38;;;12.90;99.90;;;;;;5051181;28;20037;-59
2023/07/12 04:43:30;;;;;;;13.35;5.03;;;12.90;99.90;;;;;;5051868;28;20053;-59
2023/07/12 04:45:58;;;;;;;11.38;4.68;;;12.90;99.90;;;;;;5053290;28;20595;-58
2023/07/12 04:48:27;;;;;;;8.60;3.70;;;12.90;99.90;;;;;;5037569;28;20047;-59
2023/07/12 04:50:55;;;;;;;9.30;3.42;;;12.90;99.90;;;;;;5067079;28;20048;-59
2023/07/12 04:53:23;;;;;;;9.82;3.40;;;12.90;99.90;;;;;;5027566;28;20045;-58
2023/07/12 04:55:52;;;;;;;11.25;3.25;;;12.90;99.90;;;;;;5042328;28;20511;-59
2023/07/12 04:58:20;;;;;;;7.75;3.55;;;12.90;99.90;;;;;;5045624;28;20048;-59
2023/07/12 05:00:47;;;;;;;7.85;4.07;;;13.00;99.90;;;;;;5048775;28;20045;-59
2023/07/12 05:03:16;;;;;;;7.07;3.00;;;13.00;99.90;;;;;;5035976;28;20045;-59
2023/07/12 05:05:44;;;;;;;13.38;3.60;;;13.00;99.90;;;;;;5039210;28;20040;-59
2023/07/12 05:08:13;;;;;;;13.02;3.80;;;13.00;99.90;;;;;;5031960;28;20048;-59
2023/07/12 05:10:41;;;;;;;10.27;3.42;;;13.10;99.90;;;;;;5026217;28;20076;-59
2023/07/12 05:13:08;;;;;;;7.80;3.80;;;13.10;99.90;;;;;;5033418;28;20038;-59
2023/07/12 05:15:36;;;;;;;10.35;4.00;;;13.10;99.90;;;;;;5046356;28;20056;-59
2023/07/12 05:18:04;;;;;;;7.03;4.25;;;13.20;99.90;;;;;;5023504;28;20049;-58
2023/07/12 05:20:32;;;;;;;15.20;3.70;;;13.20;99.90;;;;;;5036756;28;20384;-58
2023/07/12 05:23:01;;;;;;;7.13;3.72;;;13.20;99.90;;;;;;5035783;28;20041;-60
2023/07/12 05:25:28;;;;;;;9.18;3.83;;;13.30;99.90;;;;;;5027505;28;20056;-59
2023/07/12 05:27:56;;;;;;;9.80;3.15;;;13.30;99.90;;;;;;5037877;28;20044;-59
2023/07/12 05:30:24;;;;;;;10.73;3.53;;;13.30;99.90;;;;;;5062087;28;20056;-59
2023/07/12 05:32:52;;;;;;;6.20;3.10;;;13.30;99.90;;;;;;5045080;28;20503;-59
2023/07/12 05:35:19;;;;;;;9.65;3.13;;;13.30;99.90;;;;;;5052233;28;20503;-58
2023/07/12 05:37:50;;;;;;;10.02;3.15;;;13.30;99.90;;;;;;5044720;28;20052;-58
2023/07/12 05:40:17;;;;;;;7.03;2.40;;;13.30;99.90;;;;;;5032654;28;20044;-58
2023/07/12 05:42:45;;;;;;;4.85;2.33;;;13.40;99.90;;;;;;5037196;28;20056;-59
2023/07/12 05:45:14;;;;;;;6.22;2.17;;;13.40;99.90;;;;;;5034812;28;20053;-59
2023/07/12 05:47:42;;;;;;;4.25;1.80;;;13.40;99.90;;;;;;5027047;28;20075;-59
2023/07/12 05:50:13;;;;;;;5.95;2.78;;;13.50;99.90;;;;;;5037420;28;20509;-59
2023/07/12 05:52:41;;;;;;;3.75;2.05;;;13.50;99.90;;;;;;5031467;28;20045;-58
2023/07/12 05:55:10;;;;;;;5.55;2.10;;;13.50;99.90;;;;;;5039700;28;20049;-59
2023/07/12 05:57:38;;;;;;;6.03;2.05;;;13.60;99.90;;;;;;5019422;28;20057;-58
2023/07/12 06:00:10;;;;;;;8.95;2.40;;;13.60;99.90;;;;;;5036197;28;20048;-59
2023/07/12 06:02:38;;;;;;;6.97;2.45;;;13.60;99.90;;;;;;5050073;28;20075;-59
2023/07/12 06:05:07;;;;;;;5.38;2.50;;;13.70;99.90;;;;;;5048871;28;20052;-60
2023/07/12 06:07:35;;;;;;;8.05;2.67;;;13.70;99.90;;;;;;5037983;28;20049;-59
2023/07/12 06:10:03;;;;;;;4.32;2.53;;;13.70;99.90;;;;;;5048313;28;20060;-59
2023/07/12 06:12:31;;;;;;;7.20;2.92;;;13.70;99.90;;;;;;5042143;28;20490;-61
2023/07/12 06:14:59;;;;;;;7.47;1.90;;;13.70;99.90;;;;;;5046015;28;20047;-61
2023/07/12 06:17:28;;;;;;;4.82;2.42;;;13.80;99.90;;;;;;5046881;28;20044;-60
2023/07/12 06:19:56;;;;;;;5.35;2.17;;;13.80;99.90;;;;;;5047991;28;20057;-59
2023/07/12 06:22:25;;;;;;;3.72;2.03;;;13.80;99.90;;;;;;5022590;28;20519;-60
2023/07/12 06:24:54;;;;;;;7.40;2.30;;;13.80;99.90;;;;;;5031191;28;20041;-60
2023/07/12 06:27:22;;;;;;;7.65;2.20;;;13.90;99.90;;;;;;5042914;28;20045;-60
2023/07/12 06:29:50;;;;;;;11.05;2.50;;;13.90;99.90;;;;;;5034738;28;20045;-59
2023/07/12 06:32:17;;;;;;;7.13;2.45;;;13.90;99.90;;;;;;5040782;28;20056;-58
2023/07/12 06:34:45;;;;;;;7.63;2.30;;;13.90;99.90;;;;;;5023629;28;20045;-59
2023/07/12 06:37:13;;;;;;;6.45;2.38;;;13.90;99.90;;;;;;5034815;28;20049;-59
2023/07/12 06:39:41;;;;;;;6.32;2.55;;;14.00;99.90;;;;;;5025861;28;20045;-59
2023/07/12 06:42:09;;;;;;;9.43;2.35;;;14.00;99.90;;;;;;5034956;28;20500;-59
2023/07/12 06:44:38;;;;;;;6.15;2.05;;;14.10;99.90;;;;;;5033228;28;20045;-60
2023/07/12 06:47:06;;;;;;;8.60;2.40;;;14.10;99.90;;;;;;5019308;28;20512;-59
2023/07/12 06:49:34;;;;;;;4.20;1.75;;;14.20;99.90;;;;;;5029584;28;20052;-59
2023/07/12 06:52:03;;;;;;;5.43;2.20;;;14.20;99.90;;;;;;5021925;28;20485;-59
2023/07/12 06:54:31;;;;;;;6.32;2.22;;;14.20;99.90;;;;;;5038952;28;20421;-59
2023/07/12 06:57:00;;;;;;;5.50;1.90;;;14.30;99.90;;;;;;5034161;28;20037;-59
2023/07/12 06:59:28;;;;;;;6.18;1.35;;;14.30;99.90;;;;;;5027510;28;20048;-59
2023/07/12 07:01:55;;;;;;;7.25;1.70;;;14.30;99.90;;;;;;5021688;28;20485;-60
2023/07/12 07:04:24;;;;;;;6.95;1.83;;;14.30;99.90;;;;;;5018290;28;20049;-59
2023/07/12 07:06:52;;;;;;;4.88;1.63;;;14.30;99.90;;;;;;5021872;28;20397;-59
2023/07/12 07:09:20;;;;;;;3.88;1.52;;;14.30;99.90;;;;;;5049536;28;20412;-58
2023/07/12 07:11:47;;;;;;;3.58;1.63;;;14.40;99.90;;;;;;5026840;28;20412;-58
2023/07/12 07:14:15;;;;;;;7.72;1.50;;;14.40;99.90;;;;;;5026608;28;20393;-59
2023/07/12 07:16:44;;;;;;;7.97;1.73;;;14.40;99.90;;;;;;5032188;28;20053;-58
2023/07/12 07:19:13;;;;;;;7.32;1.75;;;14.50;99.90;;;;;;5057064;28;20056;-58
2023/07/12 07:21:41;;;;;;;6.22;1.55;;;14.50;99.90;;;;;;5034858;28;20049;-59
2023/07/12 07:24:09;;;;;;;3.67;1.30;;;14.60;99.90;;;;;;5034253;28;20533;-58
2023/07/12 07:26:37;;;;;;;3.72;1.40;;;14.70;99.90;;;;;;5032636;28;20056;-58
2023/07/12 07:29:05;;;;;;;5.32;1.40;;;14.70;99.90;;;;;;5039175;28;20526;-57
2023/07/12 07:31:33;;;;;;;5.03;2.08;;;14.70;99.90;;;;;;5030034;28;20048;-57
2023/07/12 07:34:01;;;;;;;9.40;2.40;;;14.70;99.90;;;;;;5031138;28;20045;-59
2023/07/12 07:36:28;;;;;;;5.82;1.40;;;14.80;99.90;;;;;;5044497;28;20045;-57
2023/07/12 07:38:57;;;;;;;8.23;1.77;;;14.80;99.90;;;;;;5041857;28;20052;-57
2023/07/12 07:41:26;;;;;;;5.07;1.58;;;14.90;99.90;;;;;;5030306;28;20053;-57
2023/07/12 07:43:54;;;;;;;2.90;1.10;;;14.90;99.90;;;;;;5029153;28;20056;-58
2023/07/12 07:46:22;;;;;;;5.88;1.63;;;14.90;99.90;;;;;;5025903;28;20533;-58
2023/07/12 07:48:50;;;;;;;5.18;1.52;;;14.90;99.90;;;;;;5046977;28;20041;-57
2023/07/12 07:51:18;;;;;;;4.53;1.25;;;14.90;99.90;;;;;;5041981;28;20404;-58
2023/07/12 07:53:46;;;;;;;7.38;1.48;;;14.90;99.90;;;;;;5043567;28;20059;-57
2023/07/12 07:56:14;;;;;;;4.05;1.08;;;14.90;99.90;;;;;;5046862;28;20041;-58
2023/07/12 07:58:42;;;;;;;4.95;1.33;;;14.90;99.90;;;;;;5032634;28;20046;-58
2023/07/12 08:01:09;;;;;;;4.63;1.17;;;15.00;99.90;;;;;;5050465;28;20048;-58
2023/07/12 08:03:37;;;;;;;4.18;1.10;;;15.00;99.90;;;;;;5035916;28;20056;-59
2023/07/12 08:06:06;;;;;;;4.78;1.25;;;15.10;99.90;;;;;;5055777;28;20067;-58
2023/07/12 08:08:34;;;;;;;8.50;1.50;;;15.20;99.90;;;;;;5048818;28;20049;-58
2023/07/12 08:11:07;;;;;;;7.80;1.00;;;15.30;99.90;;;;;;5032204;28;20167;-58
2023/07/12 08:13:35;;;;;;;6.38;1.50;;;15.30;99.90;;;;;;5029939;28;20041;-58
2023/07/12 08:16:04;;;;;;;2.78;1.00;;;15.40;99.90;;;;;;5021601;28;20053;-59
2023/07/12 08:18:32;;;;;;;5.50;1.13;;;15.50;99.90;;;;;;5047887;28;20419;-58
2023/07/12 08:21:01;;;;;;;4.97;1.53;;;15.60;99.90;;;;;;5051946;28;20041;-59
2023/07/12 08:23:29;;;;;;;2.88;1.15;;;15.70;99.90;;;;;;5042769;28;20290;-59
2023/07/12 08:25:57;;;;;;;6.72;1.13;;;15.80;99.90;;;;;;5024487;28;20050;-60
2023/07/12 08:28:25;;;;;;;4.70;1.42;;;15.90;99.90;;;;;;5034090;28;20053;-59
2023/07/12 08:30:53;;;;;;;3.40;1.30;;;16.10;99.90;;;;;;5007514;28;20046;-60
2023/07/12 08:33:20;;;;;;;5.97;1.38;;;16.20;99.90;;;;;;5043248;28;20047;-59
2023/07/12 08:35:48;;;;;;;7.15;1.75;;;16.20;99.90;;;;;;5032153;28;20048;-59
2023/07/12 08:38:18;;;;;;;10.48;1.58;;;16.30;99.90;;;;;;5035279;28;20049;-59
2023/07/12 08:40:48;;;;;;;;;;;16.50;99.90;;;;;;5045035;28;20045;-59
2023/07/12 08:43:21;;;;;;;5.32;1.40;;;16.60;99.90;;;;;;5039900;28;19928;-59
2023/07/12 08:45:53;;;;;;;5.45;1.17;;;16.60;99.90;;;;;;5031318;28;20053;-59
2023/07/12 08:48:23;;;;;;;11.75;1.38;;;16.70;99.90;;;;;;5038952;28;20049;-58
2023/07/12 08:50:51;;;;;;;;;;;16.70;99.90;;;;;;5029749;28;20056;-59
2023/07/12 08:53:27;;;;;;;2.58;1.33;;;16.70;99.90;;;;;;5043938;28;19929;-58
2023/07/12 08:55:56;;;;;;;2.95;1.13;;;16.70;99.90;;;;;;5037333;28;20049;-60
2023/07/12 08:58:34;;;;;;;2.92;0.63;;;16.60;99.90;;;;;;5030392;28;20052;-60
2023/07/12 09:01:07;;;;;;;8.05;1.23;;;16.60;99.90;;;;;;5039330;28;20056;-59
2023/07/12 09:03:35;;;;;;;7.07;0.85;;;16.50;99.90;;;;;;5041656;28;20045;-59
2023/07/12 09:06:12;;;;;;;1.40;0.60;;;16.60;99.90;;;;;;5056995;28;20499;-58
2023/07/12 09:08:45;;;;;;;6.60;0.77;;;16.70;99.90;;;;;;5052978;28;20049;-59
2023/07/12 09:11:16;;;;;;;6.30;1.00;;;16.90;99.90;;;;;;5032404;28;20055;-58
2023/07/12 09:13:46;;;;;;;1.83;0.57;;;16.90;99.90;;;;;;5037157;28;20049;-59
2023/07/12 09:16:20;;;;;;;;;;;16.90;99.90;;;;;;5043338;28;20522;-59
2023/07/12 09:18:54;;;;;;;3.30;0.70;;;17.00;99.90;;;;;;5044982;28;19927;-58
2023/07/12 09:21:25;;;;;;;7.10;0.70;;;17.00;99.90;;;;;;5042295;28;20484;-59
2023/07/12 09:24:01;;;;;;;3.05;0.60;;;17.00;99.90;;;;;;5042269;28;20484;-59
2023/07/12 09:26:31;;;;;;;1.00;0.65;;;17.00;99.90;;;;;;5045410;28;20059;-59
2023/07/12 09:29:05;;;;;;;7.82;0.80;;;17.00;99.90;;;;;;5036294;28;20754;-59
2023/07/12 09:31:34;;;;;;;5.90;1.08;;;17.10;99.90;;;;;;5039936;28;20488;-60
2023/07/12 09:34:14;;;;;;;10.88;1.10;;;17.00;99.90;;;;;;5044267;28;20059;-59
2023/07/12 09:36:41;;;;;;;6.28;0.70;;;17.00;99.90;;;;;;5061202;28;20055;-59
2023/07/12 09:39:11;;;;;;;3.05;0.60;;;17.00;99.90;;;;;;5064314;28;20476;-59
2023/07/12 09:41:50;;;;;;;10.43;0.85;;;17.10;99.90;;;;;;5046579;28;20056;-59
2023/07/12 09:44:18;;;;;;;3.78;0.65;;;17.20;99.90;;;;;;5033662;28;20052;-60
2023/07/12 09:46:57;;;;;;;2.92;0.60;;;17.30;99.90;;;;;;5022592;28;20046;-60
2023/07/12 09:49:36;;;;;;;1.38;0.80;;;17.40;99.90;;;;;;5041584;28;20064;-60
2023/07/12 09:52:27;;;;;;;3.42;0.80;;;17.50;99.90;;;;;;5024872;28;20056;-60
2023/07/12 09:55:00;;;;;;;3.10;1.20;;;17.70;99.90;;;;;;5038918;28;20385;-61
2023/07/12 09:57:56;;;;;;;2.05;0.70;;;17.80;99.90;;;;;;5025826;28;20046;-60
2023/07/12 10:00:49;;;;;;;5.88;1.17;;;17.80;99.90;;;;;;5038164;28;20044;-61
2023/07/12 10:03:24;;;;;;;3.00;0.63;;;17.80;99.90;;;;;;5053105;28;20049;-59
2023/07/12 10:06:11;;;;;;;11.05;0.75;;;17.90;99.90;;;;;;5053908;28;20045;-59
2023/07/12 10:09:04;;;;;;;1.35;0.63;;;17.90;99.90;;;;;;5029244;28;20504;-59
2023/07/12 10:11:43;;;;;;;5.57;1.30;;;18.00;99.90;;;;;;5029246;28;20513;-59
2023/07/12 10:14:14;;;;;;;2.97;0.70;;;18.00;99.90;;;;;;5036806;28;20057;-59
2023/07/12 10:16:50;;;;;;;3.28;0.80;;;18.10;99.90;;;;;;5006774;28;20056;-59
2023/07/12 10:19:25;;;;;;;4.07;1.02;;;18.10;99.90;;;;;;5039050;28;20676;-58
2023/07/12 10:21:57;;;;;;;1.63;0.50;;;18.20;99.90;;;;;;5043402;28;20049;-59
2023/07/12 10:24:36;;;;;;;3.08;0.77;;;18.20;99.90;;;;;;5035951;28;20041;-59
2023/07/12 10:27:21;;;;;;;3.20;0.88;;;18.20;99.90;;;;;;5021932;28;20057;-58
2023/07/12 10:30:17;;;;;;;5.70;0.93;;;18.10;99.90;;;;;;5024511;28;20045;-58
2023/07/12 10:33:37;;;;;;;3.05;0.82;;;17.90;99.90;;;;;;5033057;28;20526;-59
2023/07/12 10:36:13;;;;;;;4.78;0.80;;;17.80;99.90;;;;;;5040186;28;20064;-58
2023/07/12 10:38:41;;;;;;;3.63;0.80;;;17.60;99.90;;;;;;5036320;28;20049;-58
2023/07/12 10:41:13;;;;;;;3.83;0.65;;;17.40;99.90;;;;;;5026499;28;20045;-59
2023/07/12 10:43:51;;;;;;;3.60;0.93;;;17.20;99.90;;;;;;5051599;28;20045;-58
2023/07/12 10:46:33;;;;;;;1.67;0.70;;;17.10;99.90;;;;;;5030485;28;20516;-59
2023/07/12 10:49:20;;;;;;;4.78;0.95;;;17.00;99.90;;;;;;5055284;28;20071;-60
2023/07/12 10:52:24;;;;;;;4.63;1.27;;;16.90;99.90;;;;;;5030612;28;20049;-60
2023/07/12 10:55:04;;;;;;;8.35;1.30;;;16.80;99.90;;;;;;5040129;28;20396;-60
2023/07/12 10:57:41;;;;;;;;;;;16.80;99.90;;;;;;5027021;28;20045;-60
2023/07/12 11:00:30;;;;;;;2.75;1.42;;;16.80;99.90;;;;;;5028201;28;19921;-60
2023/07/12 11:03:24;;;;;;;5.63;2.30;;;16.80;99.90;;;;;;5046299;28;20041;-61
2023/07/12 11:05:55;;;;;;;2.65;1.35;;;16.90;99.90;;;;;;5050087;28;20308;-60
2023/07/12 11:08:32;;;;;;;3.42;1.33;;;17.20;99.90;;;;;;5035436;28;20163;-60
2023/07/12 11:11:19;;;;;;;4.72;1.50;;;17.60;99.90;;;;;;5047005;28;20053;-61
2023/07/12 11:13:56;;;;;;;6.72;1.40;;;17.60;99.90;;;;;;5047406;28;20149;-60
2023/07/12 11:16:26;;;;;;;5.80;1.45;;;17.60;99.90;;;;;;5028017;28;20050;-60
2023/07/12 11:18:58;;;;;;;5.55;1.73;;;17.60;99.90;;;;;;5041092;28;20377;-62
2023/07/12 11:21:47;;;;;;;7.03;2.00;;;17.40;99.90;;;;;;5046974;28;20400;-62
2023/07/12 11:24:27;;;;;;;3.35;1.40;;;17.20;99.90;;;;;;5046226;28;20449;-61
2023/07/12 11:27:00;;;;;;;6.30;1.90;;;16.90;99.90;;;;;;5046313;28;20049;-61
2023/07/12 11:29:34;;;;;;;6.55;2.15;;;16.60;99.90;;;;;;5041919;28;20053;-61
2023/07/12 11:32:25;;;;;;;6.82;1.92;;;16.40;99.90;;;;;;5056204;28;20041;-59
2023/07/12 11:35:04;;;;;;;5.72;1.88;;;16.20;99.90;;;;;;5044694;28;20064;-63
2023/07/12 11:37:40;;;;;;;3.65;1.30;;;16.20;99.90;;;;;;5046152;28;20485;-60
2023/07/12 11:40:15;;;;;;;3.95;1.67;;;16.20;99.90;;;;;;5031551;28;20053;-61
2023/07/12 11:42:44;;;;;;;6.78;1.67;;;16.30;99.90;;;;;;5044260;28;20045;-62
2023/07/12 11:45:17;;;;;;;4.32;1.70;;;16.40;99.90;;;;;;5038844;28;20061;-60
2023/07/12 11:47:51;;;;;;;7.85;2.03;;;16.60;99.90;;;;;;5014566;28;20053;-60
2023/07/12 11:50:28;;;;;;;3.47;1.50;;;16.90;99.90;;;;;;5029595;28;20045;-59
2023/07/12 11:52:56;;;;;;;5.30;1.73;;;17.10;99.90;;;;;;5038527;28;20049;-60
2023/07/12 11:55:28;;;;;;;4.47;2.08;;;17.30;99.90;;;;;;5046997;28;20045;-59
2023/07/12 11:57:56;;;;;;;7.00;2.03;;;17.80;99.90;;;;;;5046165;28;20048;-61
2023/07/12 12:00:27;;;;;;;5.90;1.70;;;17.80;99.90;;;;;;5037430;28;20049;-60
2023/07/12 12:02:57;;;;;;;4.55;1.48;;;18.20;99.90;;;;;;5031972;28;20054;-61
2023/07/12 12:05:32;;;;;;;9.10;1.95;;;18.40;99.90;;;;;;5052749;28;20048;-61
2023/07/12 12:08:03;;;;;;;5.70;1.50;;;18.70;99.90;;;;;;5060424;28;20049;-60
2023/07/12 12:10:35;;;;;;;;;;;18.90;99.90;;;;;;5047852;28;20045;-59
2023/07/12 12:13:20;;;;;;;3.45;1.38;;;19.10;99.90;;;;;;5047087;28;19928;-58
2023/07/12 12:15:51;;;;;;;2.00;1.20;;;19.50;99.90;;;;;;5034030;28;20053;-59
2023/07/12 12:18:22;;;;;;;5.75;1.50;;;19.70;99.90;;;;;;5046376;28;20052;-59
2023/07/12 12:21:01;;;;;;;6.82;1.70;;;19.90;99.90;;;;;;5044739;28;20061;-61
2023/07/12 12:23:41;;;;;;;3.43;1.30;;;20.20;99.90;;;;;;5046216;28;20041;-60
2023/07/12 12:26:31;;;;;;;8.45;1.30;;;20.30;99.90;;;;;;5044422;28;20045;-61
2023/07/12 12:29:04;;;;;;;3.30;1.23;;;20.50;99.90;;;;;;5045403;28;20522;-60
2023/07/12 12:31:35;;;;;;;5.50;1.42;;;20.50;99.90;;;;;;5038487;28;20381;-61
2023/07/12 12:34:05;;;;;;;4.90;1.08;;;20.60;99.90;;;;;;5046653;28;20050;-59
2023/07/12 12:36:34;;;;;;;3.47;1.23;;;20.50;99.90;;;;;;5053467;28;20056;-59
2023/07/12 12:39:11;;;;;;;3.20;1.20;;;20.50;99.90;;;;;;5044130;28;20500;-60
2023/07/12 12:41:43;;;;;;;10.85;1.35;;;20.70;99.90;;;;;;5046667;28;20053;-59
2023/07/12 12:44:16;;;;;;;7.57;1.58;;;21.20;99.90;;;;;;5050122;28;20044;-60
2023/07/12 12:46:48;;;;;;;4.25;1.38;;;21.90;99.90;;;;;;5034138;28;20083;-59
2023/07/12 12:49:33;;;;;;;2.90;1.15;;;23.00;99.90;;;;;;5044332;28;20057;-59
2023/07/12 12:52:28;;;;;;;9.82;1.40;;;23.00;99.90;;;;;;5046716;28;20045;-59
2023/07/12 12:55:04;;;;;;;2.33;1.10;;;23.00;99.90;;;;;;5045546;28;20068;-60
2023/07/12 12:57:43;;;;;;;6.07;1.15;;;22.90;99.90;;;;;;5047518;28;20047;-59
2023/07/12 13:00:21;;;;;;;3.42;1.10;;;22.70;99.90;;;;;;5042440;28;20099;-60
2023/07/12 13:02:55;;;;;;;2.85;1.00;;;22.70;99.90;;;;;;5051397;28;20471;-59
2023/07/12 13:05:27;;;;;;;5.30;1.08;;;22.70;99.90;;;;;;5053088;28;20041;-60
2023/07/12 13:08:16;;;;;;;2.67;0.73;;;22.80;99.90;;;;;;5060569;28;20049;-59
2023/07/12 13:10:46;;;;;;;5.72;1.45;;;22.60;99.90;;;;;;5048674;28;20037;-59